Velkommen til min vejrside, der er mangler og fejl som bliver opdateret. Kom snart tilbage og få vejret - Welcome to our website - Welkom op onze vernieuwde website
Bienvenue sur notre site web - Willkommen auf unserer Website - Check our progress frequently. Prüfen Sie unsere Fortschritte regelmäßig. Consultez notre progression fréquemment. Komt u straks nog eens terug


vejr3>nv more information Vejr3>NV


3 timers nedbørs radar more information rain snow radar


besøg nogle andre vejrsider:

Template dokumentation
og downloads

And another site


weather underground historie, tekst side

dagens sammenfatning af maj 20, 2018 enheder:  metrisk    engelsk   både
« forgående dag
næste dag »
dagens ugenligt månedlig årligt tilpasset
  aktuelt: høj: lav: gennemsnit:
temperatur: -7.4 °C -17.8 °C -13.1 °C -8.7 °C
dugpunkt: -12.6 °C -17.8 °C -14.3 °C -12.5 °C
fugtighed: 55 % Humidity % 46 % 66 %
vindhastighed: 26.9 km/h 0 km/h 0 km/h 14 km/h
vindstød: 26.9 km/h 0 km/h - -
vind:ESE - - SSW
lufttryk: 34703.1 hPa 0 hPa 34669.3 hPa -
nedbør: 0 mm      
Historical Graphs
 
 
tabeldata for maj 20, 2018
tid temperatur dugpunkt lufttryk vind vindhastighed vindstød fugtighed regn (timme)
-17.8 °C -17.8 °C 0 hPa Calm     Humidity % 0 mm
00:01 -12.2 °C -12.8 °C 34669.3 hPa SSE 15 km/h 15 km/h 92 % 0 mm
00:06 -12.2 °C -12.9 °C 34669.3 hPa SE 10.3 km/h 10.3 km/h 91 % 0 mm
00:11 -12.2 °C -13.1 °C 34669.3 hPa SSE 12.9 km/h 12.9 km/h 90 % 0 mm
00:16 -12.2 °C -13.1 °C 34669.3 hPa SSE 15 km/h 15 km/h 89 % 0 mm
00:21 -12.1 °C -13.1 °C 34669.3 hPa South 17.9 km/h 17.9 km/h 88 % 0 mm
00:26 -12 °C -13.2 °C 34669.3 hPa SE 11.9 km/h 11.9 km/h 86 % 0 mm
00:31 -12 °C -13.4 °C 34669.3 hPa SSE 10.3 km/h 10.3 km/h 84 % 0 mm
00:36 -11.9 °C -13.5 °C 34669.3 hPa SE 10.3 km/h 10.3 km/h 83 % 0 mm
00:41 -11.9 °C -13.6 °C 34669.3 hPa SSE 15 km/h 15 km/h 82 % 0 mm
00:46 -12 °C -13.5 °C 34669.3 hPa SE 12.9 km/h 12.9 km/h 83 % 0 mm
00:51 -12 °C -13.7 °C 34669.3 hPa SE 15 km/h 15 km/h 82 % 0 mm
00:56 -12.1 °C -13.7 °C 34669.3 hPa SE 17.9 km/h 17.9 km/h 82 % 0 mm
00:58 -12.1 °C -13.7 °C 34669.3 hPa ESE 11.9 km/h 11.9 km/h 82 % 0 mm
01:03 -12.2 °C -13.7 °C 34682.8 hPa South 11.9 km/h 11.9 km/h 83 % 0 mm
01:08 -12.2 °C -13.7 °C 34669.3 hPa SSE 17.9 km/h 17.9 km/h 83 % 0 mm
01:13 -12.2 °C -13.8 °C 34682.8 hPa South 15 km/h 15 km/h 82 % 0 mm
01:18 -12.2 °C -13.8 °C 34682.8 hPa SE 12.9 km/h 12.9 km/h 82 % 0 mm
01:23 -12.2 °C -13.8 °C 34682.8 hPa SSE 15.6 km/h 15.6 km/h 82 % 0 mm
01:28 -12.1 °C -13.8 °C 34682.8 hPa SE 17.9 km/h 17.9 km/h 81 % 0 mm
01:33 -12.1 °C -13.8 °C 34682.8 hPa SSE 15 km/h 15 km/h 81 % 0 mm
01:38 -12.1 °C -13.9 °C 34682.8 hPa SSE 17.9 km/h 17.9 km/h 80 % 0 mm
01:43 -12 °C -13.8 °C 34682.8 hPa SSE 17.9 km/h 17.9 km/h 80 % 0 mm
01:48 -12 °C -13.8 °C 34682.8 hPa ESE 12.9 km/h 12.9 km/h 80 % 0 mm
01:53 -12 °C -13.8 °C 34693 hPa SE 11.9 km/h 11.9 km/h 80 % 0 mm
01:58 -12.1 °C -13.9 °C 34682.8 hPa SE 15 km/h 15 km/h 80 % 0 mm
02:03 -12.2 °C -14 °C 34693 hPa SE 15 km/h 15 km/h 80 % 0 mm
02:08 -12.3 °C -14.1 °C 34693 hPa SE 15.6 km/h 15.6 km/h 80 % 0 mm
02:13 -12.3 °C -14.1 °C 34693 hPa SE 15 km/h 15 km/h 81 % 0 mm
02:18 -12.4 °C -14.1 °C 34693 hPa SE 12.9 km/h 12.9 km/h 81 % 0 mm
02:23 -12.4 °C -14.1 °C 34693 hPa SSE 15.6 km/h 15.6 km/h 81 % 0 mm
02:28 -12.4 °C -14.1 °C 34693 hPa SSE 17.9 km/h 17.9 km/h 82 % 0 mm
02:33 -12.4 °C -14.1 °C 34693 hPa SSE 18.2 km/h 18.2 km/h 82 % 0 mm
02:38 -12.4 °C -14 °C 34693 hPa SSE 17.9 km/h 17.9 km/h 82 % 0 mm
02:43 -12.3 °C -14 °C 34703.1 hPa SSE 15 km/h 15 km/h 82 % 0 mm
02:48 -12.3 °C -13.9 °C 34703.1 hPa SSE 15 km/h 15 km/h 82 % 0 mm
02:53 -12.3 °C -13.9 °C 34703.1 hPa SE 11.9 km/h 11.9 km/h 82 % 0 mm
02:58 -12.3 °C -13.9 °C 34703.1 hPa SSE 11.9 km/h 11.9 km/h 82 % 0 mm
03:03 -12.3 °C -14 °C 34703.1 hPa SSE 9 km/h 9 km/h 82 % 0 mm
03:08 -12.4 °C -14 °C 34703.1 hPa SSE 9 km/h 9 km/h 82 % 0 mm
03:13 -12.4 °C -14.1 °C 34703.1 hPa South 9 km/h 9 km/h 82 % 0 mm
03:18 -12.5 °C -14 °C 34703.1 hPa South 15 km/h 15 km/h 83 % 0 mm
03:23 -12.6 °C -14.1 °C 34703.1 hPa SSE 12.9 km/h 12.9 km/h 83 % 0 mm
03:28 -12.6 °C -14.1 °C 34703.1 hPa SSE 9 km/h 9 km/h 83 % 0 mm
03:33 -12.6 °C -14.1 °C 34703.1 hPa SSE 12.9 km/h 12.9 km/h 83 % 0 mm
03:34 -12.6 °C -14.1 °C 34703.1 hPa SSE 11.9 km/h 11.9 km/h 83 % 0 mm
03:39 -12.6 °C -14.1 °C 34703.1 hPa SSE 9 km/h 9 km/h 83 % 0 mm
03:44 -12.6 °C -14.1 °C 34703.1 hPa SSE 9 km/h 9 km/h 83 % 0 mm
03:49 -12.7 °C -14.1 °C 34703.1 hPa SSE 11.9 km/h 11.9 km/h 84 % 0 mm
03:54 -12.7 °C -14.1 °C 34703.1 hPa SSE 11.9 km/h 11.9 km/h 84 % 0 mm
03:59 -12.7 °C -14.1 °C 34703.1 hPa SE 11.9 km/h 11.9 km/h 84 % 0 mm
04:04 -12.6 °C -14.1 °C 34703.1 hPa SE 15 km/h 15 km/h 84 % 0 mm
04:09 -12.6 °C -14.1 °C 34703.1 hPa SSE 15.6 km/h 15.6 km/h 84 % 0 mm
04:14 -12.6 °C -14 °C 34703.1 hPa SSE 11.9 km/h 11.9 km/h 84 % 0 mm
04:19 -12.6 °C -14.1 °C 34703.1 hPa South 11.9 km/h 11.9 km/h 84 % 0 mm
04:24 -12.6 °C -14.1 °C 34703.1 hPa South 10.3 km/h 10.3 km/h 84 % 0 mm
04:29 -12.6 °C -14.1 °C 34703.1 hPa SSE 11.9 km/h 11.9 km/h 84 % 0 mm
04:34 -12.6 °C -14.1 °C 34703.1 hPa SE 15.6 km/h 15.6 km/h 84 % 0 mm
04:39 -12.6 °C -14.1 °C 34703.1 hPa SE 11.9 km/h 11.9 km/h 84 % 0 mm
04:44 -12.7 °C -14.1 °C 34703.1 hPa SE 9 km/h 9 km/h 84 % 0 mm
04:49 -12.7 °C -14.1 °C 34703.1 hPa SSE 10.3 km/h 10.3 km/h 84 % 0 mm
04:54 -12.7 °C -14.2 °C 34703.1 hPa SSE 6 km/h 6 km/h 84 % 0 mm
04:59 -12.8 °C -14.1 °C 34703.1 hPa South 6 km/h 6 km/h 85 % 0 mm
05:04 -12.8 °C -14.1 °C 34703.1 hPa South 7.7 km/h 7.7 km/h 85 % 0 mm
05:09 -12.8 °C -14.1 °C 34703.1 hPa South 6 km/h 6 km/h 86 % 0 mm
05:14 -12.8 °C -14.1 °C 34703.1 hPa SSE 9 km/h 9 km/h 86 % 0 mm
05:19 -12.8 °C -14.1 °C 34703.1 hPa SSE 6 km/h 6 km/h 86 % 0 mm
05:24 -12.8 °C -14.1 °C 34716.7 hPa SSE 6 km/h 6 km/h 86 % 0 mm
05:29 -12.8 °C -14.1 °C 34703.1 hPa SE 7.7 km/h 7.7 km/h 86 % 0 mm
05:34 -12.8 °C -13.9 °C 34703.1 hPa SE 9 km/h 9 km/h 87 % 0 mm
05:39 -12.8 °C -14.1 °C 34716.7 hPa SE 9 km/h 9 km/h 86 % 0 mm
05:44 -12.9 °C -14.1 °C 34716.7 hPa SE 6 km/h   86 % 0 mm
05:49 -12.9 °C -14.2 °C 34716.7 hPa SE 3.1 km/h   86 % 0 mm
05:54 -13 °C -14.2 °C 34716.7 hPa SE 6 km/h 6 km/h 86 % 0 mm
05:59 -13 °C -14.3 °C 34716.7 hPa SE 9 km/h 9 km/h 86 % 0 mm
06:04 -13.1 °C -14.2 °C 34716.7 hPa South 6 km/h 6 km/h 87 % 0 mm
06:09 -13.1 °C -14.3 °C 34726.8 hPa South 6 km/h 6 km/h 87 % 0 mm
06:14 -13.1 °C -14.1 °C 34716.7 hPa South 6 km/h 6 km/h 88 % 0 mm
06:19 -13.1 °C -14 °C 34716.7 hPa SSE 10.3 km/h 10.3 km/h 89 % 0 mm
06:24 -13 °C -13.8 °C 34716.7 hPa SSE 9 km/h 9 km/h 90 % 0 mm
06:29 -12.9 °C -13.8 °C 34726.8 hPa SSE 6 km/h 6 km/h 90 % 0 mm
06:34 -12.8 °C -13.7 °C 34726.8 hPa South 5.1 km/h 5.1 km/h 90 % 0 mm
06:39 -12.7 °C -13.5 °C 34726.8 hPa SE 9 km/h 9 km/h 90 % 0 mm
06:44 -12.4 °C -13.3 °C 34726.8 hPa SE 9 km/h 9 km/h 90 % 0 mm
06:49 -12.2 °C -13.2 °C 34726.8 hPa ESE 9 km/h 9 km/h 89 % 0 mm
06:54 -12 °C -13 °C 34726.8 hPa SE 9 km/h 9 km/h 88 % 0 mm
06:59 -11.8 °C -12.9 °C 34726.8 hPa SE 9 km/h 9 km/h 87 % 0 mm
07:04 -11.7 °C -12.9 °C 34726.8 hPa SE 9 km/h 9 km/h 86 % 0 mm
07:09 -11.4 °C -12.7 °C 34726.8 hPa SE 9 km/h 9 km/h 86 % 0 mm
07:14 -11.2 °C -12.6 °C 34740.4 hPa South 9 km/h 9 km/h 85 % 0 mm
07:19 -10.9 °C -12.3 °C 34740.4 hPa SSE 9 km/h 9 km/h 85 % 0 mm
07:24 -10.7 °C -12.1 °C 34740.4 hPa South 6 km/h   84 % 0 mm
07:29 -10.4 °C -12.1 °C 34740.4 hPa SSW 6 km/h 6 km/h 81 % 0 mm
07:34 -10.2 °C -12.1 °C 34740.4 hPa South 6 km/h 6 km/h 79 % 0 mm
07:39 -10.1 °C -12.1 °C 34740.4 hPa South 3.1 km/h 3.1 km/h 78 % 0 mm
07:44 -9.8 °C -12.1 °C 34740.4 hPa SSW 9 km/h 9 km/h 77 % 0 mm
07:49 -9.6 °C -11.8 °C 34740.4 hPa SSE 9 km/h 9 km/h 77 % 0 mm
07:54 -9.5 °C -11.8 °C 34740.4 hPa Calm     76 % 0 mm
07:59 -9.4 °C -11.8 °C 34740.4 hPa SSW 3.1 km/h   75 % 0 mm
08:04 -9.3 °C -11.8 °C 34740.4 hPa WSW 6 km/h 6 km/h 74 % 0 mm
08:09 -9.1 °C -11.9 °C 34750.5 hPa Calm     72 % 0 mm
08:14 -8.9 °C -11.8 °C 34750.5 hPa Calm     72 % 0 mm
08:19 -8.6 °C -11.7 °C 34750.5 hPa WNW 9 km/h 9 km/h 69 % 0 mm
08:24 -8.2 °C -12.1 °C 34750.5 hPa West 3.1 km/h 3.1 km/h 64 % 0 mm
08:29 -8.2 °C -11.8 °C 34750.5 hPa Calm     65 % 0 mm
08:34 -7.9 °C -11.7 °C 34750.5 hPa Calm     64 % 0 mm
08:39 -7.7 °C -11.6 °C 34750.5 hPa Calm     63 % 0 mm
08:44 -7.7 °C -12.7 °C 34750.5 hPa Calm     56 % 0 mm
08:49 -7.6 °C -12.3 °C 34750.5 hPa South 6 km/h 6 km/h 58 % 0 mm
08:54 -7.7 °C -12.3 °C 34750.5 hPa WNW 3.1 km/h   58 % 0 mm
08:59 -7.6 °C -12.1 °C 34750.5 hPa WSW 3.1 km/h 3.1 km/h 59 % 0 mm
09:04 -7.4 °C -12 °C 34750.5 hPa SSW 5.1 km/h 5.1 km/h 59 % 0 mm
09:09 -7.4 °C -11.8 °C 34750.5 hPa SSE 5.1 km/h 5.1 km/h 60 % 0 mm
09:14 -7.2 °C -11.9 °C 34750.5 hPa Calm   0.3 km/h 58 % 0 mm
09:19 -6.8 °C -11.8 °C 34750.5 hPa NE 3.1 km/h   56 % 0 mm
09:24 -6.6 °C -11.8 °C 34750.5 hPa SSW 6 km/h 6 km/h 55 % 0 mm
09:29 -6.6 °C -12.1 °C 34750.5 hPa Calm     53 % 0 mm
09:34 -6.6 °C -11.6 °C 34750.5 hPa Calm     56 % 0 mm
09:39 -6.4 °C -11.4 °C 34750.5 hPa North 3.1 km/h   56 % 0 mm
09:44 -6.2 °C -11.6 °C 34750.5 hPa NNW 9 km/h 9 km/h 54 % 0 mm
09:49 -6.2 °C -11.3 °C 34750.5 hPa WNW 7.7 km/h 7.7 km/h 56 % 0 mm
09:54 -6.2 °C -11.3 °C 34750.5 hPa NNW 6 km/h 6 km/h 56 % 0 mm
09:59 -6.2 °C -11.6 °C 34750.5 hPa North 10.3 km/h 10.3 km/h 54 % 0 mm
10:04 -6.2 °C -11.4 °C 34750.5 hPa NW 9 km/h 9 km/h 55 % 0 mm
10:09 -6.2 °C -11.7 °C 34750.5 hPa North 7.7 km/h 7.7 km/h 53 % 0 mm
10:14 -6.2 °C -11.8 °C 34750.5 hPa West 11.9 km/h 11.9 km/h 53 % 0 mm
10:19 -6.3 °C -11.9 °C 34750.5 hPa NNE 11.9 km/h 11.9 km/h 52 % 0 mm
10:24 -6.2 °C -12.1 °C 34750.5 hPa West 9 km/h 9 km/h 51 % 0 mm
10:29 -6.2 °C -12.9 °C 34760.7 hPa WNW 11.9 km/h 11.9 km/h 46 % 0 mm
10:34 -6.4 °C -12.9 °C 34760.7 hPa North 11.9 km/h 11.9 km/h 47 % 0 mm
10:39 -6.4 °C -12.3 °C 34760.7 hPa WNW 9 km/h 9 km/h 51 % 0 mm
10:44 -6.3 °C -11.8 °C 34760.7 hPa NNW 15.6 km/h 15.6 km/h 53 % 0 mm
10:49 -6.2 °C -12.2 °C 34760.7 hPa NW 9 km/h 9 km/h 50 % 0 mm
10:54 -6.2 °C -11.4 °C 34760.7 hPa WNW 11.9 km/h 11.9 km/h 55 % 0 mm
10:59 -6.2 °C -11.7 °C 34760.7 hPa WNW 15 km/h 15 km/h 53 % 0 mm
11:04 -6.2 °C -11.7 °C 34760.7 hPa NNW 12.9 km/h 12.9 km/h 53 % 0 mm
11:09 -6.2 °C -11.7 °C 34760.7 hPa West 15 km/h 15 km/h 53 % 0 mm
11:14 -6.1 °C -11.8 °C 34760.7 hPa WNW 11.9 km/h 11.9 km/h 52 % 0 mm
11:19 -5.9 °C -12 °C 34760.7 hPa North 10.3 km/h 10.3 km/h 50 % 0 mm
11:24 -6 °C -12.1 °C 34760.7 hPa NW 15 km/h 15 km/h 50 % 0 mm
11:29 -6.1 °C -11.6 °C 34760.7 hPa NNW 17.9 km/h 17.9 km/h 53 % 0 mm
11:34 -6.2 °C -12.3 °C 34760.7 hPa NNW 23.3 km/h 23.3 km/h 49 % 0 mm
11:39 -6.2 °C -11.9 °C 34760.7 hPa NW 17.9 km/h 17.9 km/h 52 % 0 mm
11:44 -6.2 °C -11.9 °C 34760.7 hPa WNW 15.6 km/h 15.6 km/h 52 % 0 mm
11:49 -6.2 °C -11.7 °C 34760.7 hPa West 17.9 km/h 17.9 km/h 53 % 0 mm
11:54 -6.2 °C -11.5 °C 34760.7 hPa West 17.9 km/h 17.9 km/h 54 % 0 mm
11:59 -6 °C -12.1 °C 34760.7 hPa NNW 23.8 km/h 23.8 km/h 50 % 0 mm
12:04 -5.9 °C -11.7 °C 34760.7 hPa NW 12.9 km/h 12.9 km/h 51 % 0 mm
12:09 -5.9 °C -11.7 °C 34760.7 hPa NNW 9 km/h 9 km/h 51 % 0 mm
12:14 -5.9 °C -11.9 °C 34760.7 hPa NW 11.9 km/h 11.9 km/h 50 % 0 mm
12:19 -5.9 °C -11.6 °C 34760.7 hPa ENE 11.9 km/h 11.9 km/h 52 % 0 mm
12:24 -5.9 °C -11.9 °C 34760.7 hPa NW 17.9 km/h 17.9 km/h 50 % 0 mm
12:29 -6.1 °C -11.9 °C 34760.7 hPa NNW 15 km/h 15 km/h 51 % 0 mm
12:34 -6.3 °C -11.7 °C 34760.7 hPa WNW 20.9 km/h 20.9 km/h 54 % 0 mm
12:39 -6.2 °C -11.3 °C 34760.7 hPa NNW 15.6 km/h 15.6 km/h 55 % 0 mm
12:44 -6 °C -11.5 °C 34760.7 hPa North 23.8 km/h 23.8 km/h 53 % 0 mm
12:49 -5.9 °C -11.6 °C 34760.7 hPa NNW 26.9 km/h 26.9 km/h 52 % 0 mm
12:54 -5.8 °C -11.2 °C 34760.7 hPa NNW 17.9 km/h 17.9 km/h 54 % 0 mm
12:59 -5.7 °C -11.2 °C 34760.7 hPa NNW 25.9 km/h 25.9 km/h 53 % 0 mm
13:04 -5.7 °C -11.8 °C 34760.7 hPa NW 11.9 km/h 11.9 km/h 50 % 0 mm
13:09 -5.8 °C -11.6 °C 34760.7 hPa NNW 17.9 km/h 17.9 km/h 52 % 0 mm
13:14 -5.8 °C -11.5 °C 34760.7 hPa NNW 15 km/h 15 km/h 52 % 0 mm
13:19 -5.8 °C -11.2 °C 34760.7 hPa North 15.6 km/h 15.6 km/h 54 % 0 mm
13:24 -5.6 °C -11.6 °C 34760.7 hPa North 9 km/h 9 km/h 50 % 0 mm
13:29 -5.4 °C -10.9 °C 34760.7 hPa East 9 km/h 9 km/h 53 % 0 mm
13:34 -5.4 °C -11.6 °C 34760.7 hPa WNW 28.5 km/h 28.5 km/h 49 % 0 mm
13:39 -5.4 °C -11.5 °C 34750.5 hPa NNW 9 km/h 9 km/h 50 % 0 mm
13:44 -5.3 °C -11.6 °C 34760.7 hPa NW 15.6 km/h 15.6 km/h 49 % 0 mm
13:49 -5.6 °C -11.6 °C 34750.5 hPa North 9 km/h 9 km/h 50 % 0 mm
13:54 -5.7 °C -11.4 °C 34750.5 hPa ENE 10.3 km/h 10.3 km/h 52 % 0 mm
13:59 -5.9 °C -11.8 °C 34750.5 hPa ENE 9 km/h 9 km/h 51 % 0 mm
14:04 -5.9 °C -12.1 °C 34750.5 hPa NE 15 km/h 15 km/h 49 % 0 mm
14:09 -5.8 °C -11.5 °C 34750.5 hPa NE 9 km/h 9 km/h 52 % 0 mm
14:11 -5.8 °C -11.7 °C 34750.5 hPa NNE 15 km/h 15 km/h 51 % 0 mm
14:16 -5.7 °C -11.2 °C 34750.5 hPa NE 10.3 km/h 10.3 km/h 53 % 0 mm
14:21 -5.4 °C -11.2 °C 34750.5 hPa WNW 9 km/h 9 km/h 52 % 0 mm
14:26 -5.3 °C -10.9 °C 34750.5 hPa NE 15.6 km/h 15.6 km/h 53 % 0 mm
14:31 -5.2 °C -11.3 °C 34750.5 hPa NNE 5.1 km/h 18.2 km/h 50 % 0 mm
14:36 -5.2 °C -11.3 °C 34750.5 hPa North 26.9 km/h 26.9 km/h 50 % 0 mm
14:41 -5.5 °C -11.1 °C 34750.5 hPa NNE 33.6 km/h 33.6 km/h 53 % 0 mm
14:46 -5.7 °C -11.1 °C 34750.5 hPa North 29.8 km/h 29.8 km/h 54 % 0 mm
14:51 -5.7 °C -11.2 °C 34750.5 hPa North 33.6 km/h 33.6 km/h 53 % 0 mm
14:56 -5.8 °C -11.3 °C 34750.5 hPa NW 29.8 km/h 29.8 km/h 53 % 0 mm
15:01 -5.7 °C -11.6 °C 34750.5 hPa NNW 35.7 km/h 35.7 km/h 51 % 0 mm
15:06 -5.9 °C -11.3 °C 34740.4 hPa NW 23.8 km/h 23.8 km/h 54 % 0 mm
15:11 -5.8 °C -11.3 °C 34740.4 hPa NNW 17.9 km/h 17.9 km/h 53 % 0 mm
15:16 -5.7 °C -11.1 °C 34740.4 hPa NNE 23.8 km/h 23.8 km/h 54 % 0 mm
15:21 -5.6 °C -11.2 °C 34740.4 hPa North 23.8 km/h 23.8 km/h 53 % 0 mm
15:26 -5.4 °C -11.2 °C 34740.4 hPa WNW 11.9 km/h 11.9 km/h 52 % 0 mm
15:31 -5.6 °C -11.2 °C 34740.4 hPa NW 25.9 km/h 25.9 km/h 53 % 0 mm
15:36 -5.7 °C -10.9 °C 34740.4 hPa NW 29.8 km/h 29.8 km/h 55 % 0 mm
15:41 -5.7 °C -11.1 °C 34740.4 hPa NNW 11.9 km/h 11.9 km/h 54 % 0 mm
15:46 -5.7 °C -11.3 °C 34740.4 hPa NNW 23.8 km/h 23.8 km/h 52 % 0 mm
15:51 -5.7 °C -11.4 °C 34740.4 hPa NNW 23.8 km/h 23.8 km/h 52 % 0 mm
15:56 -5.5 °C -11.1 °C 34726.8 hPa NW 17.9 km/h 17.9 km/h 53 % 0 mm
16:01 -5.4 °C -11 °C 34726.8 hPa NNW 12.9 km/h 12.9 km/h 53 % 0 mm
16:06 -5.7 °C -11.6 °C 34726.8 hPa North 15 km/h 15 km/h 51 % 0 mm
16:11 -5.8 °C -11.6 °C 34726.8 hPa NNW 12.9 km/h 12.9 km/h 52 % 0 mm
16:16 -5.9 °C -11.2 °C 34726.8 hPa NW 26.9 km/h 26.9 km/h 55 % 0 mm
16:21 -5.8 °C -11.1 °C 34726.8 hPa West 18.2 km/h 18.2 km/h 55 % 0 mm
16:26 -5.5 °C -11.3 °C 34726.8 hPa North 9 km/h 9 km/h 52 % 0 mm
16:31 -5.4 °C -11.5 °C 34726.8 hPa NNW 12.9 km/h 18.2 km/h 50 % 0 mm
16:36 -5.5 °C -11.4 °C 34716.7 hPa NNW 5.1 km/h 7.7 km/h 51 % 0 mm
16:41 -5.6 °C -11.3 °C 34716.7 hPa West 9 km/h 9 km/h 52 % 0 mm
16:46 -5.6 °C -11.3 °C 34716.7 hPa North 25.9 km/h 25.9 km/h 52 % 0 mm
16:51 -5.8 °C -11.5 °C 34716.7 hPa NNW 15 km/h 15 km/h 52 % 0 mm
16:56 -5.9 °C -11.4 °C 34716.7 hPa North 17.9 km/h 17.9 km/h 53 % 0 mm
17:01 -5.9 °C -11.5 °C 34716.7 hPa NNW 12.9 km/h 18.2 km/h 53 % 0 mm
17:06 -5.9 °C -11.2 °C 34716.7 hPa NW 9 km/h 9 km/h 55 % 0 mm
17:11 -5.8 °C -11.1 °C 34716.7 hPa NNW 26.9 km/h 26.9 km/h 55 % 0 mm
17:16 -5.7 °C -11.2 °C 34716.7 hPa North 23.3 km/h 23.3 km/h 54 % 0 mm
17:21 -5.8 °C -11.5 °C 34716.7 hPa NNE 17.9 km/h 17.9 km/h 52 % 0 mm
17:26 -5.9 °C -11.6 °C 34716.7 hPa North 11.9 km/h 11.9 km/h 52 % 0 mm
17:31 -6 °C -11.5 °C 34703.1 hPa NNE 15.6 km/h 15.6 km/h 53 % 0 mm
17:36 -5.9 °C -11.2 °C 34703.1 hPa NNE 10.3 km/h 10.3 km/h 55 % 0 mm
17:41 -5.9 °C -10.8 °C 34703.1 hPa ESE 15 km/h 15 km/h 57 % 0 mm
17:46 -5.8 °C -11 °C 34703.1 hPa ESE 23.8 km/h 23.8 km/h 55 % 0 mm
17:51 -5.7 °C -11.3 °C 34703.1 hPa ENE 23.3 km/h 23.3 km/h 52 % 0 mm
17:56 -5.7 °C -11.8 °C 34703.1 hPa East 31.1 km/h 31.1 km/h 50 % 0 mm
18:01 -5.8 °C -11.3 °C 34703.1 hPa ENE 26.9 km/h 26.9 km/h 53 % 0 mm
18:06 -5.9 °C -11.7 °C 34703.1 hPa ENE 29.8 km/h 29.8 km/h 51 % 0 mm
18:11 -5.9 °C -11.8 °C 34703.1 hPa ENE 32.8 km/h 32.8 km/h 51 % 0 mm
18:16 -5.9 °C -11.6 °C 34703.1 hPa East 29.8 km/h 29.8 km/h 52 % 0 mm
18:21 -5.9 °C -11.5 °C 34703.1 hPa ENE 20.9 km/h 20.9 km/h 53 % 0 mm
18:26 -6 °C -11.6 °C 34703.1 hPa ESE 26.9 km/h 26.9 km/h 53 % 0 mm
18:31 -6.1 °C -11.4 °C 34703.1 hPa ESE 26.9 km/h 26.9 km/h 54 % 0 mm
18:36 -6.2 °C -11.2 °C 34703.1 hPa East 23.8 km/h 23.8 km/h 56 % 0 mm
18:41 -6.2 °C -11.3 °C 34703.1 hPa ESE 29.8 km/h 29.8 km/h 56 % 0 mm
18:46 -6.2 °C -11.6 °C 34703.1 hPa East 31.1 km/h 31.1 km/h 54 % 0 mm
18:51 -6.3 °C -11.7 °C 34703.1 hPa East 31.1 km/h 31.1 km/h 54 % 0 mm
18:56 -6.4 °C -11.8 °C 34703.1 hPa ESE 38.8 km/h 38.8 km/h 54 % 0 mm
19:01 -6.6 °C -11.9 °C 34703.1 hPa East 18.2 km/h 18.2 km/h 54 % 0 mm
19:06 -6.7 °C -11.9 °C 34703.1 hPa East 29.8 km/h 29.8 km/h 55 % 0 mm
19:11 -6.8 °C -11.8 °C 34703.1 hPa ESE 36.2 km/h 36.2 km/h 56 % 0 mm
19:16 -6.9 °C -12.1 °C 34703.1 hPa ESE 35.7 km/h 35.7 km/h 55 % 0 mm
19:21 -7.1 °C -12.2 °C 34703.1 hPa ESE 28.5 km/h 28.5 km/h 55 % 0 mm
19:26 -7.1 °C -12.3 °C 34703.1 hPa East 29.8 km/h 29.8 km/h 55 % 0 mm
19:31 -7.2 °C -12.2 °C 34703.1 hPa ESE 26.9 km/h 26.9 km/h 56 % 0 mm
19:36 -7.3 °C -12.3 °C 34703.1 hPa ESE 28.5 km/h 28.5 km/h 56 % 0 mm
19:41 -7.4 °C -12.6 °C 34703.1 hPa ESE 26.9 km/h 26.9 km/h 55 % 0 mm
Vejr3
tilladelse af Weather Underground - 3.75 mb

script udviklet af  Jim McMurry - jmcmurry@mwt.net tilpasset til dette template  Wim van der Kuil - Leuven-Template.eu

du finder også vores vejrinformationer på:

European Weather Network

Weather Underground

AWEKAS

WeatherlinkIP

Citizen Weather Observer Program (CWOP)

udstyr som vi anvender:

vejrstation
Davis VP2+

vejrprogram
Weather Display

vejrserver
Dell E6400

hjemmeside host
Webhosting.dk

Davis VP2+

Weather Display

Dell E6400

Webhosting.dk